Agawam, MA

4:36 AM EST on November 28, 2014 (GMT -0500)
Cooks Clubs | Change Station
CLOSE
Current Station
Personal Weather Station
Location: Agawam, MA
Elevation: 125 ft
Nearby Weather Stations

Elev 125 ft 42.05 °N, 72.62 °W | Updated 40 seconds ago

Overcast
Overcast
28.9 °F
Feels Like 29 °F
N
0.0
Wind Variable Wind from NNE

Today
High -- | Low -- °F
--% Chance of Precip.
Yesterday
High -- | Low -- °F
Precip. -- in
6:55 AM 4:20 PM
Waxing Crescent, 38% visible
Pressure 30.04 in
Visibility 10.0 miles
Clouds Overcast 7000 ft
Windchill 29 °F
Dew Point 28 °F
Humidity 98%
Rainfall 0.00 in
Snow Depth Not available.
UV 0 out of 12
Pollen .10 out of 12
Air Quality Not available.
Flu Activity Not available.
METAR KBAF 280853Z 00000KT 10SM OVC070 M02/M03 A3002 RMK AO2 SLP172 T10171028 53004

More Conditions Fewer Conditions

Pressure 30.04 in
Visibility 10.0 miles
Clouds Overcast 7000 ft
Windchill 29 °F
Dew Point 28 °F
Humidity 98%
Rainfall 0.00 in
Snow Depth Not available.
UV 0 out of 12
Pollen .10 out of 12
Air Quality Not available.
Flu Activity Not available.
METAR KBAF 280853Z 00000KT 10SM OVC070 M02/M03 A3002 RMK AO2 SLP172 T10171028 53004

More Conditions Fewer Conditions

10-Day Weather Forecast

Almanac

Astronomy

Nov. 28, 2014 Rise Set
Actual Time
Civil Twilight
Nautical Twilight
Astronomical Twilight
Moon
Length of Visible Light
Length of Day
Tomorrow will be .
, % of the Moon is Illuminated

Today's Extremes

State Highs State Lows

Community

WunderPhotos

Upload Photos

1,774,190 photos uploaded!

WunderBlogs® & News

Nearby

Air Quality

  Air Quality AQ Index Pollutant
Not available.

Snow Depth

Station Depth Elevation

Earthquake Activity

City Distance Mag. Time & Date
Minimum magnitude displayed is 2.5.

Coastal Water Temperatures

Place Temperature

Nearby Weather Stations